createdAt,value
2019-05-02T00:02:11.800Z,12.53
2019-05-02T00:04:38.608Z,13.93
2019-05-02T00:07:22.510Z,14.07
2019-05-02T00:09:59.279Z,11.47
2019-05-02T00:12:29.696Z,13.63
2019-05-02T00:15:05.687Z,13.93
2019-05-02T00:18:09.883Z,11.23
2019-05-02T00:20:38.668Z,13.43
2019-05-02T00:23:15.072Z,13.70
2019-05-02T00:25:47.317Z,13.00
2019-05-02T00:28:13.975Z,11.83
2019-05-02T00:30:41.020Z,14.10
2019-05-02T00:33:10.442Z,11.73
2019-05-02T00:35:40.966Z,14.33
2019-05-02T00:38:06.220Z,13.93
2019-05-02T00:40:33.176Z,12.93
2019-05-02T00:43:01.084Z,14.17
2019-05-02T00:45:28.940Z,13.93
2019-05-02T00:48:07.077Z,14.50
2019-05-02T00:50:40.269Z,13.43
2019-05-02T00:53:07.096Z,13.53
2019-05-02T00:55:35.888Z,13.37
2019-05-02T00:58:04.669Z,14.23
2019-05-02T01:00:36.995Z,15.40
2019-05-02T01:03:03.773Z,15.37
2019-05-02T01:05:33.835Z,13.90
2019-05-02T01:08:08.453Z,16.13
2019-05-02T01:10:37.336Z,16.77
2019-05-02T01:13:06.116Z,13.67
2019-05-02T01:15:33.298Z,14.07
2019-05-02T01:18:24.276Z,14.37
2019-05-02T01:20:51.172Z,17.57
2019-05-02T01:23:33.619Z,16.47
2019-05-02T01:26:00.399Z,17.37
2019-05-02T01:28:49.214Z,17.10
2019-05-02T01:31:26.457Z,14.87
2019-05-02T01:34:18.139Z,16.70
2019-05-02T01:36:50.418Z,14.70
2019-05-02T01:39:18.230Z,16.17
2019-05-02T01:41:45.155Z,19.53
2019-05-02T01:44:15.073Z,18.23
2019-05-02T01:46:43.246Z,16.00
2019-05-02T01:49:21.871Z,16.60
2019-05-02T01:51:47.627Z,18.60
2019-05-02T01:54:15.255Z,17.87
2019-05-02T01:56:42.021Z,18.80
2019-05-02T01:59:11.817Z,18.40
2019-05-02T02:01:38.892Z,20.10
2019-05-02T02:04:16.248Z,18.47
2019-05-02T02:06:45.159Z,17.37
2019-05-02T02:09:12.328Z,17.43
2019-05-02T02:11:44.977Z,19.50
2019-05-02T02:14:12.955Z,20.60
2019-05-02T02:16:41.795Z,18.90
2019-05-02T02:19:17.666Z,17.73
2019-05-02T02:21:51.168Z,19.50
2019-05-02T02:24:30.931Z,19.57
2019-05-02T02:26:58.714Z,19.10
2019-05-02T02:29:27.621Z,20.13
2019-05-02T02:31:54.478Z,19.30
2019-05-02T02:34:29.210Z,19.90
2019-05-02T02:36:50.561Z,19.03
2019-05-02T02:39:23.378Z,20.27
2019-05-02T02:41:51.988Z,17.70
2019-05-02T02:44:39.957Z,19.90
2019-05-02T02:47:19.011Z,20.53
2019-05-02T02:49:41.548Z,18.60
2019-05-02T02:52:15.239Z,17.97
2019-05-02T02:54:43.297Z,20.27
2019-05-02T02:57:20.086Z,19.53
2019-05-02T02:59:39.449Z,19.57
2019-05-02T03:02:13.223Z,19.00
2019-05-02T03:04:44.054Z,21.50
2019-05-02T03:07:08.705Z,21.00
2019-05-02T03:09:36.564Z,21.67
2019-05-02T03:12:23.053Z,19.97
2019-05-02T03:14:53.937Z,22.40
2019-05-02T03:17:26.131Z,21.67
2019-05-02T03:19:54.422Z,20.43
2019-05-02T03:22:18.549Z,20.50
2019-05-02T03:24:46.795Z,20.57
2019-05-02T03:27:21.847Z,20.70
2019-05-02T03:29:48.733Z,20.87
2019-05-02T03:32:29.928Z,20.37
2019-05-02T03:34:48.377Z,23.30
2019-05-02T03:37:13.917Z,20.63
2019-05-02T03:39:41.060Z,21.53
2019-05-02T03:42:09.203Z,21.27
2019-05-02T03:44:55.160Z,22.33
2019-05-02T03:47:13.625Z,23.53
2019-05-02T03:49:48.521Z,20.17
2019-05-02T03:52:11.554Z,19.83
2019-05-02T03:54:50.315Z,17.30
2019-05-02T03:57:10.855Z,21.27
2019-05-02T03:59:41.761Z,21.47
2019-05-02T04:02:20.362Z,19.57
2019-05-02T04:04:44.207Z,22.10
2019-05-02T04:07:27.089Z,23.27
2019-05-02T04:10:00.788Z,21.70
2019-05-02T04:12:32.383Z,23.63
2019-05-02T04:14:57.471Z,19.93
2019-05-02T04:17:28.672Z,24.70
2019-05-02T04:19:53.619Z,24.00
2019-05-02T04:22:28.677Z,21.37
2019-05-02T04:24:57.487Z,22.63
2019-05-02T04:27:34.064Z,26.63
2019-05-02T04:30:09.732Z,26.17
2019-05-02T04:32:28.309Z,21.30
2019-05-02T04:34:57.988Z,27.37
2019-05-02T04:37:26.222Z,22.00
2019-05-02T04:39:59.994Z,26.83
2019-05-02T04:42:29.614Z,25.10
2019-05-02T04:45:20.681Z,28.63
2019-05-02T04:47:32.521Z,26.90
2019-05-02T04:49:59.491Z,28.77
2019-05-02T04:52:40.799Z,28.00
2019-05-02T04:55:17.132Z,28.80
2019-05-02T04:57:36.738Z,28.97
2019-05-02T05:00:06.136Z,31.43
2019-05-02T05:02:34.241Z,30.00
2019-05-02T05:04:58.218Z,31.07
2019-05-02T05:07:31.203Z,30.60
2019-05-02T05:09:58.186Z,30.47
2019-05-02T05:12:24.881Z,31.63
2019-05-02T05:14:51.674Z,33.57
2019-05-02T05:17:20.027Z,34.97
2019-05-02T05:19:48.763Z,35.70
2019-05-02T05:22:18.256Z,34.10
2019-05-02T05:24:53.888Z,35.77
2019-05-02T05:27:22.830Z,36.80
2019-05-02T05:30:02.268Z,37.07
2019-05-02T05:32:25.401Z,37.47
2019-05-02T05:35:03.454Z,38.97
2019-05-02T05:37:29.384Z,38.70
2019-05-02T05:39:58.005Z,40.50
2019-05-02T05:42:31.770Z,41.37
2019-05-02T05:44:58.335Z,42.40
2019-05-02T05:47:27.317Z,43.93
2019-05-02T05:49:57.587Z,43.97
2019-05-02T05:52:27.042Z,44.07
2019-05-02T05:54:54.306Z,43.47
2019-05-02T05:57:27.863Z,42.50
2019-05-02T05:59:54.972Z,45.17
2019-05-02T06:02:21.896Z,44.10
2019-05-02T06:04:55.162Z,44.50
2019-05-02T06:07:24.191Z,44.83
2019-05-02T06:09:51.880Z,42.73
2019-05-02T06:12:18.713Z,43.73
2019-05-02T06:14:46.695Z,47.00
2019-05-02T06:17:13.992Z,43.23
2019-05-02T06:19:41.809Z,48.00
2019-05-02T06:22:16.534Z,46.70
2019-05-02T06:24:52.803Z,50.20
2019-05-02T06:27:26.091Z,47.27
2019-05-02T06:29:56.045Z,45.20
2019-05-02T06:32:23.252Z,49.97
2019-05-02T06:34:50.068Z,47.67
2019-05-02T06:37:19.853Z,54.50
2019-05-02T06:39:54.820Z,52.80
2019-05-02T06:42:27.590Z,56.47
2019-05-02T06:44:59.611Z,53.43
2019-05-02T06:47:24.000Z,63.47
2019-05-02T06:50:01.119Z,64.17
2019-05-02T06:52:32.615Z,52.13
2019-05-02T06:55:00.068Z,47.50
2019-05-02T06:57:33.338Z,48.97
2019-05-02T07:00:00.260Z,46.90
2019-05-02T07:02:33.546Z,40.37
2019-05-02T07:05:13.563Z,39.60
2019-05-02T07:08:19.786Z,40.73
2019-05-02T07:10:46.652Z,39.63
2019-05-02T07:13:15.737Z,39.57
2019-05-02T07:15:59.823Z,35.10
2019-05-02T07:18:30.591Z,34.43
2019-05-02T07:20:57.712Z,31.53
2019-05-02T07:23:30.924Z,30.13
2019-05-02T07:26:00.557Z,28.63
2019-05-02T07:28:30.669Z,28.10
2019-05-02T07:31:01.032Z,27.27
2019-05-02T07:33:32.186Z,27.57
2019-05-02T07:36:00.015Z,26.53
2019-05-02T07:38:28.363Z,26.97
2019-05-02T07:40:57.579Z,27.77
2019-05-02T07:43:34.542Z,26.87
2019-05-02T07:48:32.412Z,28.10
2019-05-02T07:51:03.296Z,27.67
2019-05-02T07:53:32.659Z,28.27
2019-05-02T07:58:32.532Z,28.47
2019-05-02T08:01:08.152Z,28.83
2019-05-02T08:03:36.675Z,28.17
2019-05-02T08:06:10.054Z,29.13
2019-05-02T08:08:41.008Z,28.87
2019-05-02T08:11:08.570Z,29.47
2019-05-02T08:13:36.416Z,28.07
2019-05-02T08:16:04.720Z,30.27
2019-05-02T08:18:32.921Z,31.37
2019-05-02T08:21:00.894Z,31.10
2019-05-02T08:23:29.645Z,30.53
2019-05-02T08:25:57.605Z,32.20
2019-05-02T08:28:36.864Z,32.90
2019-05-02T08:31:08.278Z,31.93
2019-05-02T08:33:38.399Z,32.63
2019-05-02T08:36:06.047Z,32.43
2019-05-02T08:38:33.797Z,31.93
2019-05-02T08:41:01.275Z,32.10
2019-05-02T08:43:28.905Z,32.20
2019-05-02T08:45:56.634Z,31.10
2019-05-02T08:48:24.047Z,31.27
2019-05-02T08:50:53.697Z,31.97
2019-05-02T08:53:22.385Z,31.87
2019-05-02T08:55:50.987Z,31.77
2019-05-02T08:58:18.559Z,33.67
2019-05-02T09:00:49.547Z,32.80
2019-05-02T09:03:18.165Z,34.33
2019-05-02T09:05:48.419Z,33.67
2019-05-02T09:08:16.698Z,31.87
2019-05-02T09:10:44.849Z,34.47
2019-05-02T09:13:18.080Z,35.40
2019-05-02T09:15:49.638Z,34.47
2019-05-02T09:18:14.980Z,34.00
2019-05-02T09:20:47.079Z,32.47
2019-05-02T09:23:12.486Z,34.90
2019-05-02T09:25:42.730Z,34.23
2019-05-02T09:28:12.229Z,34.60
2019-05-02T09:30:41.946Z,33.93
2019-05-02T09:33:11.300Z,34.10
2019-05-02T09:35:38.623Z,35.47
2019-05-02T09:38:07.892Z,34.97
2019-05-02T09:40:35.597Z,34.20
2019-05-02T09:43:04.795Z,34.17
2019-05-02T09:45:37.315Z,35.37
2019-05-02T09:48:07.130Z,34.80
2019-05-02T09:50:38.470Z,36.53
2019-05-02T09:53:06.173Z,37.20
2019-05-02T09:55:33.702Z,38.07
2019-05-02T09:58:02.736Z,36.77
2019-05-02T10:00:47.026Z,37.60
2019-05-02T10:03:16.301Z,35.03
2019-05-02T10:05:43.921Z,37.47
2019-05-02T10:08:13.736Z,36.00
2019-05-02T10:10:45.756Z,38.33
2019-05-02T10:13:12.939Z,36.73
2019-05-02T10:15:42.111Z,38.20
2019-05-02T10:18:19.276Z,38.73
2019-05-02T10:20:44.126Z,38.60
2019-05-02T10:23:19.487Z,38.20
2019-05-02T10:25:46.574Z,37.17
2019-05-02T10:28:12.958Z,38.07
2019-05-02T10:30:42.630Z,37.77
2019-05-02T10:33:12.133Z,39.27
2019-05-02T10:35:43.356Z,38.83
2019-05-02T10:38:17.559Z,38.30
2019-05-02T10:40:42.444Z,39.20
2019-05-02T10:43:11.793Z,39.23
2019-05-02T10:45:42.491Z,39.47
2019-05-02T10:48:24.348Z,40.83
2019-05-02T10:50:46.923Z,39.90
2019-05-02T10:53:36.649Z,40.47
2019-05-02T10:57:09.710Z,40.53
2019-05-02T11:03:22.610Z,41.50
2019-05-02T11:06:05.753Z,42.00
2019-05-02T11:08:46.145Z,41.13
2019-05-02T11:11:21.871Z,43.13
2019-05-02T11:26:32.445Z,36.33
2019-05-02T11:29:00.288Z,38.77
2019-05-02T11:31:56.252Z,37.53
2019-05-02T11:34:44.734Z,37.20
2019-05-02T11:41:05.232Z,33.93
2019-05-02T11:43:47.344Z,34.20
2019-05-02T11:46:33.005Z,36.13
2019-05-02T11:49:46.752Z,34.70
2019-05-02T11:52:36.193Z,32.50
2019-05-02T11:55:35.932Z,34.03
2019-05-02T11:58:20.257Z,32.97
2019-05-02T12:00:57.722Z,31.77
2019-05-02T12:03:52.423Z,31.77
2019-05-02T12:06:49.404Z,31.13
2019-05-02T12:09:15.576Z,32.37
2019-05-02T12:11:47.366Z,30.73
2019-05-02T12:14:17.850Z,30.27
2019-05-02T12:16:52.884Z,31.80
2019-05-02T12:19:22.930Z,30.87
2019-05-02T12:21:53.348Z,31.53
2019-05-02T12:24:23.529Z,29.00
2019-05-02T12:26:52.691Z,29.40
2019-05-02T12:29:21.799Z,29.00
2019-05-02T12:31:56.395Z,28.10
2019-05-02T12:34:32.427Z,26.93
2019-05-02T12:37:01.791Z,26.20
2019-05-02T12:39:33.799Z,25.90
2019-05-02T12:42:03.312Z,25.90
2019-05-02T12:44:35.341Z,27.00
2019-05-02T12:47:08.878Z,27.60
2019-05-02T12:49:42.276Z,25.77
2019-05-02T12:52:12.978Z,26.37
2019-05-02T12:55:12.782Z,26.30
2019-05-02T12:57:54.251Z,23.90
2019-05-02T13:00:58.546Z,21.53
2019-05-02T13:04:05.927Z,19.83
2019-05-02T13:06:37.272Z,18.73
2019-05-02T13:09:07.874Z,19.47
2019-05-02T13:11:57.956Z,17.90
2019-05-02T13:14:28.269Z,18.73
2019-05-02T13:17:01.532Z,17.70
2019-05-02T13:20:43.610Z,18.50
2019-05-02T13:23:52.703Z,17.63
2019-05-02T13:26:27.068Z,16.43
2019-05-02T13:29:00.073Z,16.23
2019-05-02T13:31:36.801Z,14.73
2019-05-02T13:34:25.847Z,14.37
2019-05-02T13:36:54.369Z,15.40
2019-05-02T13:39:36.656Z,15.20
2019-05-02T13:42:08.532Z,14.80
2019-05-02T13:44:41.915Z,15.13
2019-05-02T13:47:12.247Z,14.30
2019-05-02T13:49:53.602Z,16.47
2019-05-02T13:52:13.802Z,15.77
2019-05-02T13:54:42.620Z,16.80
2019-05-02T13:57:12.115Z,16.60
2019-05-02T13:59:41.665Z,16.43
2019-05-02T14:02:33.124Z,17.87
2019-05-02T14:05:02.310Z,18.60
2019-05-02T14:07:32.460Z,19.23
2019-05-02T14:10:02.773Z,19.90
2019-05-02T14:12:49.463Z,21.57
2019-05-02T14:15:18.932Z,22.97
2019-05-02T14:17:47.562Z,22.50
2019-05-02T14:20:17.984Z,21.90
2019-05-02T14:22:46.878Z,22.87
2019-05-02T14:25:14.543Z,24.60
2019-05-02T14:27:42.302Z,23.27
2019-05-02T14:30:12.164Z,24.20
2019-05-02T14:32:39.842Z,23.60
2019-05-02T14:35:24.109Z,24.37
2019-05-02T14:38:07.379Z,24.07
2019-05-02T14:40:36.851Z,24.43
2019-05-02T14:43:06.052Z,22.97
2019-05-02T14:45:34.065Z,24.13
2019-05-02T14:48:17.997Z,23.17
2019-05-02T14:50:31.999Z,21.90
2019-05-02T14:53:03.673Z,21.67
2019-05-02T14:55:33.585Z,21.23
2019-05-02T14:58:08.543Z,20.37
2019-05-02T15:00:45.771Z,21.23
2019-05-02T15:03:09.693Z,20.47
2019-05-02T15:05:37.571Z,19.70
2019-05-02T15:08:06.839Z,18.77
2019-05-02T15:10:48.907Z,16.63
2019-05-02T15:13:06.363Z,17.90
2019-05-02T15:15:40.772Z,16.77
2019-05-02T15:18:07.911Z,17.60
2019-05-02T15:20:39.312Z,17.77
2019-05-02T15:23:07.136Z,16.57
2019-05-02T15:25:34.717Z,16.57
2019-05-02T15:28:04.124Z,15.30
2019-05-02T15:30:31.710Z,13.53
2019-05-02T15:33:09.735Z,11.97
2019-05-02T15:35:57.204Z,10.50
2019-05-02T15:38:28.234Z,9.43
2019-05-02T15:40:59.319Z,8.00
2019-05-02T15:43:25.019Z,6.63
2019-05-02T15:45:52.823Z,5.87
2019-05-02T15:48:26.094Z,6.60
2019-05-02T15:50:53.036Z,5.77
2019-05-02T15:53:25.925Z,5.73
2019-05-02T15:56:05.254Z,6.10
2019-05-02T15:58:32.914Z,6.23
2019-05-02T16:01:23.321Z,5.20
2019-05-02T16:03:52.349Z,4.03
2019-05-02T16:06:24.327Z,3.70
2019-05-02T16:08:49.272Z,3.40
2019-05-02T16:11:17.763Z,4.40
2019-05-02T16:13:47.028Z,4.80
2019-05-02T16:16:15.414Z,5.13
2019-05-02T16:18:43.895Z,4.50
2019-05-02T16:21:27.043Z,5.00
2019-05-02T16:24:11.160Z,3.80
2019-05-02T16:26:44.911Z,3.73
2019-05-02T16:29:10.922Z,3.87
2019-05-02T16:31:42.467Z,3.23
2019-05-02T16:34:16.539Z,3.20
2019-05-02T16:36:44.376Z,3.40
2019-05-02T16:39:21.907Z,3.80
2019-05-02T16:41:52.960Z,3.00
2019-05-02T16:44:40.285Z,2.50
2019-05-02T16:47:03.475Z,2.70
2019-05-02T16:49:34.777Z,2.63
2019-05-02T16:52:22.328Z,2.93
2019-05-02T16:54:52.398Z,2.30
2019-05-02T16:57:22.146Z,3.10
2019-05-02T17:00:01.122Z,2.30
2019-05-02T17:02:32.625Z,2.37
2019-05-02T17:05:00.140Z,2.20
2019-05-02T17:07:44.680Z,2.00
2019-05-02T17:10:35.124Z,1.93
2019-05-02T17:13:05.466Z,2.20
2019-05-02T17:15:52.291Z,2.30
2019-05-02T17:18:22.915Z,2.50
2019-05-02T17:20:56.873Z,2.00
2019-05-02T17:23:24.080Z,2.30
2019-05-02T17:25:52.333Z,2.70
2019-05-02T17:28:31.753Z,2.57
2019-05-02T17:31:05.236Z,1.97
2019-05-02T17:33:33.706Z,2.20
2019-05-02T17:36:21.532Z,1.83
2019-05-02T17:38:47.667Z,2.20
2019-05-02T17:41:14.620Z,2.13
2019-05-02T17:43:42.269Z,2.00
2019-05-02T17:46:21.959Z,1.83
2019-05-02T17:48:52.736Z,1.90
2019-05-02T17:51:28.386Z,1.80
2019-05-02T17:54:07.465Z,2.43
2019-05-02T17:56:35.315Z,1.60
2019-05-02T17:59:04.108Z,2.10
2019-05-02T18:01:35.752Z,2.27
2019-05-02T18:04:06.973Z,2.03
2019-05-02T18:06:35.602Z,2.47
2019-05-02T18:09:08.886Z,2.33
2019-05-02T18:11:37.678Z,2.43
2019-05-02T18:14:16.156Z,2.67
2019-05-02T18:16:39.207Z,2.00
2019-05-02T18:19:05.745Z,1.90
2019-05-02T18:21:33.762Z,2.10
2019-05-02T18:24:02.547Z,1.70
2019-05-02T18:26:31.826Z,1.40
2019-05-02T18:29:02.762Z,1.90
2019-05-02T18:31:34.793Z,1.50
2019-05-02T18:34:06.331Z,1.80
2019-05-02T18:36:34.409Z,1.60
2019-05-02T18:39:14.437Z,1.77
2019-05-02T18:41:51.820Z,1.53
2019-05-02T18:44:18.834Z,1.63
2019-05-02T18:46:45.907Z,1.87
2019-05-02T18:49:17.005Z,1.70
2019-05-02T18:51:53.935Z,2.00
2019-05-02T18:54:21.762Z,2.10
2019-05-02T18:56:55.293Z,2.10
2019-05-02T18:59:27.315Z,2.10
2019-05-02T19:01:59.364Z,2.30
2019-05-02T19:04:39.440Z,2.30
2019-05-02T19:07:02.897Z,5.53
2019-05-02T19:09:48.469Z,2.60
2019-05-02T19:12:19.346Z,2.53
2019-05-02T19:14:45.350Z,2.50
2019-05-02T19:17:13.712Z,2.60
2019-05-02T19:19:46.373Z,3.10
2019-05-02T19:22:16.982Z,2.50
2019-05-02T19:24:43.673Z,2.57
2019-05-02T19:27:21.063Z,2.20
2019-05-02T19:29:48.409Z,2.50
2019-05-02T19:32:25.499Z,2.10
2019-05-02T19:34:46.905Z,2.30
2019-05-02T19:37:21.661Z,2.60
2019-05-02T19:39:48.940Z,2.67
2019-05-02T19:42:22.601Z,2.30
2019-05-02T19:44:52.794Z,2.40
2019-05-02T19:47:25.593Z,2.40
2019-05-02T19:49:56.324Z,2.27
2019-05-02T19:52:28.158Z,2.13
2019-05-02T19:54:59.059Z,2.80
2019-05-02T19:57:26.483Z,2.30
2019-05-02T19:59:57.174Z,2.40
2019-05-02T20:02:23.917Z,2.70
2019-05-02T20:04:52.087Z,2.37
2019-05-02T20:07:21.687Z,2.90
2019-05-02T20:09:48.688Z,2.97
2019-05-02T20:12:15.901Z,2.73
2019-05-02T20:14:47.494Z,2.73
2019-05-02T20:17:14.958Z,3.40
2019-05-02T20:19:46.178Z,2.40
2019-05-02T20:22:15.431Z,2.67
2019-05-02T20:24:55.577Z,2.50
2019-05-02T20:29:58.739Z,3.03
2019-05-02T20:32:26.579Z,3.23
2019-05-02T20:34:55.115Z,2.80
2019-05-02T20:37:25.973Z,2.80
2019-05-02T20:39:54.800Z,2.53
2019-05-02T20:42:22.255Z,3.00
2019-05-02T20:44:52.636Z,2.57
2019-05-02T20:47:23.726Z,3.20
2019-05-02T20:49:51.880Z,2.60
2019-05-02T20:52:21.705Z,2.60
2019-05-02T20:54:49.347Z,2.60
2019-05-02T20:57:22.048Z,2.50
2019-05-02T20:59:49.993Z,2.60
2019-05-02T21:02:17.865Z,2.43
2019-05-02T21:04:45.673Z,2.77
2019-05-02T21:07:23.645Z,2.63
2019-05-02T21:10:02.378Z,2.33
2019-05-02T21:12:30.388Z,3.27
2019-05-02T21:14:58.395Z,3.00
2019-05-02T21:17:26.221Z,3.17
2019-05-02T21:19:53.776Z,2.63
2019-05-02T21:22:23.775Z,2.50
2019-05-02T21:24:52.898Z,2.93
2019-05-02T21:27:22.095Z,3.10
2019-05-02T21:29:49.416Z,2.73
2019-05-02T21:32:16.825Z,2.83
2019-05-02T21:34:45.452Z,3.10
2019-05-02T21:37:13.141Z,2.67
2019-05-02T21:39:42.524Z,2.97
2019-05-02T21:42:10.179Z,2.90
2019-05-02T21:44:38.995Z,3.20
2019-05-02T21:47:06.655Z,2.80
2019-05-02T21:49:45.868Z,2.60
2019-05-02T21:52:39.050Z,3.00
2019-05-02T21:55:21.707Z,3.20
2019-05-02T21:57:49.225Z,2.80
2019-05-02T22:00:39.320Z,3.47
2019-05-02T22:03:09.518Z,3.47
2019-05-02T22:05:37.391Z,2.83
2019-05-02T22:08:04.795Z,2.80
2019-05-02T22:10:32.450Z,2.70
2019-05-02T22:13:02.038Z,2.30
2019-05-02T22:15:29.510Z,2.47
2019-05-02T22:18:02.002Z,2.60
2019-05-02T22:20:32.073Z,3.07
2019-05-02T22:22:59.816Z,2.67
2019-05-02T22:25:27.216Z,2.57
2019-05-02T22:27:54.935Z,3.10
2019-05-02T22:30:22.611Z,2.60
2019-05-02T22:32:51.671Z,4.00
2019-05-02T22:35:21.584Z,2.73
2019-05-02T22:37:51.962Z,3.03
2019-05-02T22:40:21.775Z,2.53
2019-05-02T22:42:49.439Z,3.27
2019-05-02T22:45:17.311Z,3.00
2019-05-02T22:47:44.705Z,2.83
2019-05-02T22:50:14.065Z,2.67
2019-05-02T22:52:42.322Z,4.50
2019-05-02T22:55:11.959Z,2.93
2019-05-02T22:57:42.044Z,2.37
2019-05-02T23:00:09.252Z,2.67
2019-05-02T23:02:36.705Z,2.77
2019-05-02T23:05:05.168Z,3.10
2019-05-02T23:07:32.751Z,2.70
2019-05-02T23:10:02.176Z,2.60
2019-05-02T23:12:31.531Z,2.70
2019-05-02T23:15:02.029Z,2.60
2019-05-02T23:17:32.149Z,2.40
2019-05-02T23:20:02.271Z,2.80
2019-05-02T23:22:29.882Z,2.67
2019-05-02T23:25:16.446Z,2.63
2019-05-02T23:27:56.965Z,2.50
2019-05-02T23:30:25.526Z,2.73
2019-05-02T23:32:56.526Z,2.90
2019-05-02T23:35:24.903Z,2.70
2019-05-02T23:38:02.123Z,2.57
2019-05-02T23:40:32.513Z,2.47
2019-05-02T23:43:01.765Z,2.70
2019-05-02T23:45:29.122Z,2.50
2019-05-02T23:48:02.027Z,2.40
2019-05-02T23:50:29.537Z,2.83
2019-05-02T23:53:02.161Z,3.33
2019-05-02T23:55:29.218Z,2.97
2019-05-02T23:57:56.903Z,2.50
